sensor_id;sensor_type;location;lat;lon;timestamp;P1;durP1;ratioP1;P2;durP2;ratioP2
1701;SDS011;848;48.354;10.064;2023-12-20T00:01:16;2.90;;;2.20;;
1701;SDS011;848;48.354;10.064;2023-12-20T00:03:44;5.68;;;2.28;;
1701;SDS011;848;48.354;10.064;2023-12-20T00:06:11;3.17;;;2.20;;
1701;SDS011;848;48.354;10.064;2023-12-20T00:08:37;3.03;;;2.15;;
1701;SDS011;848;48.354;10.064;2023-12-20T00:11:04;5.10;;;2.30;;
1701;SDS011;848;48.354;10.064;2023-12-20T00:13:31;3.95;;;2.20;;
1701;SDS011;848;48.354;10.064;2023-12-20T00:15:58;2.70;;;1.83;;
1701;SDS011;848;48.354;10.064;2023-12-20T00:18:25;3.90;;;2.63;;
1701;SDS011;848;48.354;10.064;2023-12-20T00:20:57;2.42;;;2.13;;
1701;SDS011;848;48.354;10.064;2023-12-20T00:23:24;2.03;;;1.92;;
1701;SDS011;848;48.354;10.064;2023-12-20T00:25:51;3.10;;;1.50;;
1701;SDS011;848;48.354;10.064;2023-12-20T00:28:18;1.70;;;1.58;;
1701;SDS011;848;48.354;10.064;2023-12-20T00:30:45;2.38;;;1.40;;
1701;SDS011;848;48.354;10.064;2023-12-20T00:33:12;2.55;;;1.60;;
1701;SDS011;848;48.354;10.064;2023-12-20T00:35:38;2.90;;;1.90;;
1701;SDS011;848;48.354;10.064;2023-12-20T00:38:07;4.32;;;2.63;;
1701;SDS011;848;48.354;10.064;2023-12-20T00:40:35;2.40;;;1.60;;
1701;SDS011;848;48.354;10.064;2023-12-20T00:43:02;4.45;;;2.70;;
1701;SDS011;848;48.354;10.064;2023-12-20T00:45:29;3.85;;;2.83;;
1701;SDS011;848;48.354;10.064;2023-12-20T00:47:55;4.22;;;2.20;;
1701;SDS011;848;48.354;10.064;2023-12-20T00:50:22;1.92;;;1.73;;
1701;SDS011;848;48.354;10.064;2023-12-20T00:52:49;3.97;;;2.50;;
1701;SDS011;848;48.354;10.064;2023-12-20T00:55:17;2.08;;;1.85;;
1701;SDS011;848;48.354;10.064;2023-12-20T00:57:44;1.85;;;1.75;;
1701;SDS011;848;48.354;10.064;2023-12-20T01:00:12;1.88;;;1.70;;
1701;SDS011;848;48.354;10.064;2023-12-20T01:02:39;2.30;;;2.10;;
1701;SDS011;848;48.354;10.064;2023-12-20T01:05:06;2.35;;;2.00;;
1701;SDS011;848;48.354;10.064;2023-12-20T01:07:34;1.83;;;1.70;;
1701;SDS011;848;48.354;10.064;2023-12-20T01:10:01;1.83;;;1.73;;
1701;SDS011;848;48.354;10.064;2023-12-20T01:12:29;1.90;;;1.63;;
1701;SDS011;848;48.354;10.064;2023-12-20T01:14:56;1.90;;;1.63;;
1701;SDS011;848;48.354;10.064;2023-12-20T01:17:23;4.05;;;2.50;;
1701;SDS011;848;48.354;10.064;2023-12-20T01:19:49;2.40;;;2.13;;
1701;SDS011;848;48.354;10.064;2023-12-20T01:22:16;2.40;;;2.05;;
1701;SDS011;848;48.354;10.064;2023-12-20T01:24:43;2.85;;;2.22;;
1701;SDS011;848;48.354;10.064;2023-12-20T01:27:10;3.10;;;2.03;;
1701;SDS011;848;48.354;10.064;2023-12-20T01:29:38;1.65;;;1.55;;
1701;SDS011;848;48.354;10.064;2023-12-20T01:32:05;2.47;;;1.83;;
1701;SDS011;848;48.354;10.064;2023-12-20T01:34:32;2.28;;;2.08;;
1701;SDS011;848;48.354;10.064;2023-12-20T01:36:59;2.40;;;1.60;;
1701;SDS011;848;48.354;10.064;2023-12-20T01:39:26;2.17;;;1.85;;
1701;SDS011;848;48.354;10.064;2023-12-20T01:41:53;1.80;;;1.50;;
1701;SDS011;848;48.354;10.064;2023-12-20T01:44:20;3.13;;;2.20;;
1701;SDS011;848;48.354;10.064;2023-12-20T01:46:48;1.83;;;1.63;;
1701;SDS011;848;48.354;10.064;2023-12-20T01:49:15;1.50;;;1.40;;
1701;SDS011;848;48.354;10.064;2023-12-20T01:51:42;2.20;;;1.67;;
1701;SDS011;848;48.354;10.064;2023-12-20T01:54:17;2.45;;;2.00;;
1701;SDS011;848;48.354;10.064;2023-12-20T01:56:45;2.30;;;2.10;;
1701;SDS011;848;48.354;10.064;2023-12-20T01:59:12;5.57;;;2.20;;
1701;SDS011;848;48.354;10.064;2023-12-20T02:01:39;1.90;;;1.60;;
1701;SDS011;848;48.354;10.064;2023-12-20T02:04:08;1.65;;;1.55;;
1701;SDS011;848;48.354;10.064;2023-12-20T02:06:35;2.00;;;1.48;;
1701;SDS011;848;48.354;10.064;2023-12-20T02:09:06;2.88;;;1.67;;
1701;SDS011;848;48.354;10.064;2023-12-20T02:11:33;1.88;;;1.77;;
1701;SDS011;848;48.354;10.064;2023-12-20T02:14:02;2.20;;;2.00;;
1701;SDS011;848;48.354;10.064;2023-12-20T02:16:32;1.50;;;1.40;;
1701;SDS011;848;48.354;10.064;2023-12-20T02:18:59;2.03;;;1.80;;
1701;SDS011;848;48.354;10.064;2023-12-20T02:21:32;3.60;;;2.20;;
1701;SDS011;848;48.354;10.064;2023-12-20T02:23:59;2.75;;;1.55;;
1701;SDS011;848;48.354;10.064;2023-12-20T02:26:26;3.13;;;1.98;;
1701;SDS011;848;48.354;10.064;2023-12-20T02:28:53;3.22;;;2.50;;
1701;SDS011;848;48.354;10.064;2023-12-20T02:31:21;1.92;;;1.20;;
1701;SDS011;848;48.354;10.064;2023-12-20T02:33:48;1.58;;;1.48;;
1701;SDS011;848;48.354;10.064;2023-12-20T02:36:15;1.67;;;1.30;;
1701;SDS011;848;48.354;10.064;2023-12-20T02:38:43;2.67;;;1.80;;
1701;SDS011;848;48.354;10.064;2023-12-20T02:41:10;1.88;;;1.77;;
1701;SDS011;848;48.354;10.064;2023-12-20T02:43:37;1.55;;;1.40;;
1701;SDS011;848;48.354;10.064;2023-12-20T02:46:07;1.35;;;1.35;;
1701;SDS011;848;48.354;10.064;2023-12-20T02:48:34;2.13;;;1.52;;
1701;SDS011;848;48.354;10.064;2023-12-20T02:51:01;1.25;;;1.20;;
1701;SDS011;848;48.354;10.064;2023-12-20T02:53:28;1.98;;;1.52;;
1701;SDS011;848;48.354;10.064;2023-12-20T02:55:56;2.00;;;1.73;;
1701;SDS011;848;48.354;10.064;2023-12-20T02:58:25;1.27;;;1.17;;
1701;SDS011;848;48.354;10.064;2023-12-20T03:00:52;2.70;;;1.77;;
1701;SDS011;848;48.354;10.064;2023-12-20T03:03:19;2.35;;;1.60;;
1701;SDS011;848;48.354;10.064;2023-12-20T03:05:46;1.13;;;1.02;;
1701;SDS011;848;48.354;10.064;2023-12-20T03:08:13;3.17;;;1.50;;
1701;SDS011;848;48.354;10.064;2023-12-20T03:10:39;1.52;;;1.42;;
1701;SDS011;848;48.354;10.064;2023-12-20T03:13:08;1.35;;;1.25;;
1701;SDS011;848;48.354;10.064;2023-12-20T03:15:35;1.85;;;1.75;;
1701;SDS011;848;48.354;10.064;2023-12-20T03:18:02;2.20;;;1.73;;
1701;SDS011;848;48.354;10.064;2023-12-20T03:20:29;1.45;;;1.30;;
1701;SDS011;848;48.354;10.064;2023-12-20T03:22:59;2.03;;;1.65;;
1701;SDS011;848;48.354;10.064;2023-12-20T03:25:26;1.90;;;1.67;;
1701;SDS011;848;48.354;10.064;2023-12-20T03:27:53;1.40;;;1.10;;
1701;SDS011;848;48.354;10.064;2023-12-20T03:30:21;1.88;;;1.48;;
1701;SDS011;848;48.354;10.064;2023-12-20T03:32:50;1.50;;;1.40;;
1701;SDS011;848;48.354;10.064;2023-12-20T03:35:17;2.15;;;1.75;;
1701;SDS011;848;48.354;10.064;2023-12-20T03:37:44;1.27;;;1.20;;
1701;SDS011;848;48.354;10.064;2023-12-20T03:40:11;1.30;;;1.20;;
1701;SDS011;848;48.354;10.064;2023-12-20T03:42:37;1.33;;;1.33;;
1701;SDS011;848;48.354;10.064;2023-12-20T03:45:05;1.65;;;1.40;;
1701;SDS011;848;48.354;10.064;2023-12-20T03:47:34;1.08;;;1.08;;
1701;SDS011;848;48.354;10.064;2023-12-20T03:50:00;1.58;;;1.48;;
1701;SDS011;848;48.354;10.064;2023-12-20T03:52:27;2.08;;;1.50;;
1701;SDS011;848;48.354;10.064;2023-12-20T03:54:54;1.45;;;1.10;;
1701;SDS011;848;48.354;10.064;2023-12-20T03:57:21;1.60;;;1.50;;
1701;SDS011;848;48.354;10.064;2023-12-20T03:59:48;1.35;;;1.25;;
1701;SDS011;848;48.354;10.064;2023-12-20T04:02:15;1.65;;;1.55;;
1701;SDS011;848;48.354;10.064;2023-12-20T04:04:44;2.03;;;1.50;;
1701;SDS011;848;48.354;10.064;2023-12-20T04:07:11;1.70;;;1.60;;
1701;SDS011;848;48.354;10.064;2023-12-20T04:09:38;2.20;;;1.95;;
1701;SDS011;848;48.354;10.064;2023-12-20T04:12:05;2.20;;;1.70;;
1701;SDS011;848;48.354;10.064;2023-12-20T04:14:32;1.60;;;1.50;;
1701;SDS011;848;48.354;10.064;2023-12-20T04:16:59;1.67;;;1.58;;
1701;SDS011;848;48.354;10.064;2023-12-20T04:19:26;2.10;;;1.90;;
1701;SDS011;848;48.354;10.064;2023-12-20T04:21:54;1.95;;;1.63;;
1701;SDS011;848;48.354;10.064;2023-12-20T04:24:21;2.42;;;1.27;;
1701;SDS011;848;48.354;10.064;2023-12-20T04:26:48;3.05;;;1.40;;
1701;SDS011;848;48.354;10.064;2023-12-20T04:29:15;2.30;;;1.92;;
1701;SDS011;848;48.354;10.064;2023-12-20T04:31:41;1.65;;;1.55;;
1701;SDS011;848;48.354;10.064;2023-12-20T04:34:08;1.75;;;1.40;;
1701;SDS011;848;48.354;10.064;2023-12-20T04:36:35;1.40;;;1.30;;
1701;SDS011;848;48.354;10.064;2023-12-20T04:39:03;1.45;;;1.35;;
1701;SDS011;848;48.354;10.064;2023-12-20T04:41:30;2.63;;;1.60;;
1701;SDS011;848;48.354;10.064;2023-12-20T04:43:57;1.67;;;1.58;;
1701;SDS011;848;48.354;10.064;2023-12-20T04:46:24;1.77;;;1.60;;
1701;SDS011;848;48.354;10.064;2023-12-20T04:48:51;4.68;;;1.88;;
1701;SDS011;848;48.354;10.064;2023-12-20T04:51:18;2.10;;;1.58;;
1701;SDS011;848;48.354;10.064;2023-12-20T04:53:44;2.25;;;1.55;;
1701;SDS011;848;48.354;10.064;2023-12-20T04:56:13;1.95;;;1.63;;
1701;SDS011;848;48.354;10.064;2023-12-20T04:58:39;2.47;;;1.65;;
1701;SDS011;848;48.354;10.064;2023-12-20T05:01:08;1.95;;;1.75;;
1701;SDS011;848;48.354;10.064;2023-12-20T05:03:35;1.48;;;1.38;;
1701;SDS011;848;48.354;10.064;2023-12-20T05:06:02;2.50;;;2.35;;
1701;SDS011;848;48.354;10.064;2023-12-20T05:08:30;2.60;;;2.40;;
1701;SDS011;848;48.354;10.064;2023-12-20T05:10:56;5.15;;;3.85;;
1701;SDS011;848;48.354;10.064;2023-12-20T05:13:25;3.70;;;1.20;;
1701;SDS011;848;48.354;10.064;2023-12-20T05:15:52;2.83;;;1.65;;
1701;SDS011;848;48.354;10.064;2023-12-20T05:18:20;1.70;;;1.52;;
1701;SDS011;848;48.354;10.064;2023-12-20T05:20:48;5.40;;;1.98;;
1701;SDS011;848;48.354;10.064;2023-12-20T05:23:15;2.25;;;1.40;;
1701;SDS011;848;48.354;10.064;2023-12-20T05:25:42;2.10;;;1.90;;
1701;SDS011;848;48.354;10.064;2023-12-20T05:28:09;2.67;;;2.30;;
1701;SDS011;848;48.354;10.064;2023-12-20T05:30:37;2.97;;;2.28;;
1701;SDS011;848;48.354;10.064;2023-12-20T05:33:04;2.00;;;1.88;;
1701;SDS011;848;48.354;10.064;2023-12-20T05:35:31;1.20;;;1.20;;
1701;SDS011;848;48.354;10.064;2023-12-20T05:37:58;3.33;;;1.30;;
1701;SDS011;848;48.354;10.064;2023-12-20T05:40:24;1.63;;;1.55;;
1701;SDS011;848;48.354;10.064;2023-12-20T05:42:51;4.63;;;1.83;;
1701;SDS011;848;48.354;10.064;2023-12-20T05:45:19;1.58;;;1.48;;
1701;SDS011;848;48.354;10.064;2023-12-20T05:47:47;1.60;;;1.50;;
1701;SDS011;848;48.354;10.064;2023-12-20T05:50:14;2.15;;;1.70;;
1701;SDS011;848;48.354;10.064;2023-12-20T05:52:41;1.55;;;1.45;;
1701;SDS011;848;48.354;10.064;2023-12-20T05:55:08;2.58;;;2.03;;
1701;SDS011;848;48.354;10.064;2023-12-20T05:57:34;2.25;;;2.10;;
1701;SDS011;848;48.354;10.064;2023-12-20T06:00:01;1.80;;;1.70;;
1701;SDS011;848;48.354;10.064;2023-12-20T06:02:29;2.00;;;1.88;;
1701;SDS011;848;48.354;10.064;2023-12-20T06:04:57;2.05;;;1.92;;
1701;SDS011;848;48.354;10.064;2023-12-20T06:07:24;2.70;;;2.17;;
1701;SDS011;848;48.354;10.064;2023-12-20T06:09:51;2.30;;;2.10;;
1701;SDS011;848;48.354;10.064;2023-12-20T06:12:18;2.15;;;2.03;;
1701;SDS011;848;48.354;10.064;2023-12-20T06:14:45;2.08;;;1.98;;
1701;SDS011;848;48.354;10.064;2023-12-20T06:17:12;2.28;;;1.95;;
1701;SDS011;848;48.354;10.064;2023-12-20T06:19:38;2.72;;;1.90;;
1701;SDS011;848;48.354;10.064;2023-12-20T06:22:09;2.38;;;2.17;;
1701;SDS011;848;48.354;10.064;2023-12-20T06:24:35;2.28;;;2.05;;
1701;SDS011;848;48.354;10.064;2023-12-20T06:27:03;1.60;;;1.50;;
1701;SDS011;848;48.354;10.064;2023-12-20T06:29:30;3.28;;;2.33;;
1701;SDS011;848;48.354;10.064;2023-12-20T06:31:57;2.70;;;2.50;;
1701;SDS011;848;48.354;10.064;2023-12-20T06:34:23;2.90;;;2.60;;
1701;SDS011;848;48.354;10.064;2023-12-20T06:36:50;3.28;;;2.97;;
1701;SDS011;848;48.354;10.064;2023-12-20T06:39:18;2.80;;;2.60;;
1701;SDS011;848;48.354;10.064;2023-12-20T06:41:45;2.47;;;2.30;;
1701;SDS011;848;48.354;10.064;2023-12-20T06:44:12;8.57;;;3.50;;
1701;SDS011;848;48.354;10.064;2023-12-20T06:46:39;3.65;;;3.35;;
1701;SDS011;848;48.354;10.064;2023-12-20T06:49:06;3.97;;;3.45;;
1701;SDS011;848;48.354;10.064;2023-12-20T06:51:33;4.35;;;3.95;;
1701;SDS011;848;48.354;10.064;2023-12-20T06:53:59;3.60;;;3.30;;
1701;SDS011;848;48.354;10.064;2023-12-20T06:56:29;4.15;;;3.13;;
1701;SDS011;848;48.354;10.064;2023-12-20T06:58:55;5.47;;;3.72;;
1701;SDS011;848;48.354;10.064;2023-12-20T07:01:22;5.10;;;4.10;;
1701;SDS011;848;48.354;10.064;2023-12-20T07:03:49;3.72;;;3.42;;
1701;SDS011;848;48.354;10.064;2023-12-20T07:06:16;5.72;;;5.15;;
1701;SDS011;848;48.354;10.064;2023-12-20T07:08:44;3.97;;;3.67;;
1701;SDS011;848;48.354;10.064;2023-12-20T07:11:11;3.92;;;3.63;;
1701;SDS011;848;48.354;10.064;2023-12-20T07:13:39;6.00;;;4.20;;
1701;SDS011;848;48.354;10.064;2023-12-20T07:16:06;4.13;;;3.72;;
1701;SDS011;848;48.354;10.064;2023-12-20T07:18:33;6.10;;;4.90;;
1701;SDS011;848;48.354;10.064;2023-12-20T07:21:00;6.20;;;3.50;;
1701;SDS011;848;48.354;10.064;2023-12-20T07:23:27;4.18;;;3.78;;
1701;SDS011;848;48.354;10.064;2023-12-20T07:25:54;4.65;;;4.20;;
1701;SDS011;848;48.354;10.064;2023-12-20T07:28:20;7.78;;;3.17;;
1701;SDS011;848;48.354;10.064;2023-12-20T07:30:49;4.65;;;4.03;;
1701;SDS011;848;48.354;10.064;2023-12-20T07:33:15;4.35;;;3.22;;
1701;SDS011;848;48.354;10.064;2023-12-20T07:35:42;6.35;;;3.80;;
1701;SDS011;848;48.354;10.064;2023-12-20T07:38:10;4.07;;;3.72;;
1701;SDS011;848;48.354;10.064;2023-12-20T07:40:37;4.82;;;4.38;;
1701;SDS011;848;48.354;10.064;2023-12-20T07:43:04;3.83;;;3.45;;
1701;SDS011;848;48.354;10.064;2023-12-20T07:45:31;3.33;;;3.13;;
1701;SDS011;848;48.354;10.064;2023-12-20T07:47:59;4.72;;;4.32;;
1701;SDS011;848;48.354;10.064;2023-12-20T07:50:26;5.57;;;3.90;;
1701;SDS011;848;48.354;10.064;2023-12-20T07:52:53;5.35;;;3.50;;
1701;SDS011;848;48.354;10.064;2023-12-20T07:55:20;3.95;;;3.65;;
1701;SDS011;848;48.354;10.064;2023-12-20T07:57:47;5.25;;;3.80;;
1701;SDS011;848;48.354;10.064;2023-12-20T08:00:14;9.68;;;4.00;;
1701;SDS011;848;48.354;10.064;2023-12-20T08:02:42;4.95;;;4.47;;
1701;SDS011;848;48.354;10.064;2023-12-20T08:05:11;4.03;;;3.45;;
1701;SDS011;848;48.354;10.064;2023-12-20T08:07:38;4.10;;;3.70;;
1701;SDS011;848;48.354;10.064;2023-12-20T08:10:05;4.10;;;3.25;;
1701;SDS011;848;48.354;10.064;2023-12-20T08:12:33;5.53;;;3.55;;
1701;SDS011;848;48.354;10.064;2023-12-20T08:15:00;7.05;;;4.13;;
1701;SDS011;848;48.354;10.064;2023-12-20T08:17:29;4.82;;;3.83;;
1701;SDS011;848;48.354;10.064;2023-12-20T08:19:55;4.30;;;3.90;;
1701;SDS011;848;48.354;10.064;2023-12-20T08:22:24;3.92;;;3.33;;
1701;SDS011;848;48.354;10.064;2023-12-20T08:24:50;3.25;;;2.95;;
1701;SDS011;848;48.354;10.064;2023-12-20T08:28:52;4.82;;;3.50;;
1701;SDS011;848;48.354;10.064;2023-12-20T08:31:19;3.53;;;3.13;;
1701;SDS011;848;48.354;10.064;2023-12-20T08:33:46;3.42;;;3.10;;
1701;SDS011;848;48.354;10.064;2023-12-20T08:36:14;6.35;;;4.18;;
1701;SDS011;848;48.354;10.064;2023-12-20T08:38:42;4.82;;;4.43;;
1701;SDS011;848;48.354;10.064;2023-12-20T08:41:09;3.90;;;3.42;;
1701;SDS011;848;48.354;10.064;2023-12-20T08:43:36;3.88;;;3.33;;
1701;SDS011;848;48.354;10.064;2023-12-20T08:46:06;7.65;;;5.93;;
1701;SDS011;848;48.354;10.064;2023-12-20T08:48:34;4.97;;;3.78;;
1701;SDS011;848;48.354;10.064;2023-12-20T08:51:02;3.63;;;3.25;;
1701;SDS011;848;48.354;10.064;2023-12-20T08:53:29;4.45;;;4.07;;
1701;SDS011;848;48.354;10.064;2023-12-20T08:55:56;3.40;;;3.10;;
1701;SDS011;848;48.354;10.064;2023-12-20T08:58:26;3.65;;;2.85;;
1701;SDS011;848;48.354;10.064;2023-12-20T09:00:53;3.72;;;3.42;;
1701;SDS011;848;48.354;10.064;2023-12-20T09:03:21;6.20;;;3.38;;
1701;SDS011;848;48.354;10.064;2023-12-20T09:05:48;4.47;;;2.65;;
1701;SDS011;848;48.354;10.064;2023-12-20T09:08:15;3.97;;;3.67;;
1701;SDS011;848;48.354;10.064;2023-12-20T09:10:41;4.10;;;3.70;;
1701;SDS011;848;48.354;10.064;2023-12-20T09:13:09;4.50;;;4.10;;
1701;SDS011;848;48.354;10.064;2023-12-20T09:15:39;3.67;;;3.30;;
1701;SDS011;848;48.354;10.064;2023-12-20T09:18:06;3.65;;;3.35;;
1701;SDS011;848;48.354;10.064;2023-12-20T09:20:34;6.07;;;3.47;;
1701;SDS011;848;48.354;10.064;2023-12-20T09:23:01;3.42;;;3.15;;
1701;SDS011;848;48.354;10.064;2023-12-20T09:25:28;3.10;;;2.78;;
1701;SDS011;848;48.354;10.064;2023-12-20T09:27:55;6.53;;;4.75;;
1701;SDS011;848;48.354;10.064;2023-12-20T09:30:22;3.30;;;3.00;;
1701;SDS011;848;48.354;10.064;2023-12-20T09:32:50;4.15;;;3.50;;
1701;SDS011;848;48.354;10.064;2023-12-20T09:35:17;3.70;;;3.40;;
1701;SDS011;848;48.354;10.064;2023-12-20T09:37:45;3.42;;;2.80;;
1701;SDS011;848;48.354;10.064;2023-12-20T09:40:12;4.05;;;3.67;;
1701;SDS011;848;48.354;10.064;2023-12-20T09:42:48;3.95;;;3.65;;
1701;SDS011;848;48.354;10.064;2023-12-20T09:45:22;4.43;;;2.60;;
1701;SDS011;848;48.354;10.064;2023-12-20T09:47:49;3.83;;;3.53;;
1701;SDS011;848;48.354;10.064;2023-12-20T09:50:17;4.85;;;3.88;;
1701;SDS011;848;48.354;10.064;2023-12-20T09:52:47;5.38;;;3.47;;
1701;SDS011;848;48.354;10.064;2023-12-20T09:55:17;2.95;;;2.60;;
1701;SDS011;848;48.354;10.064;2023-12-20T09:57:43;2.58;;;2.38;;
1701;SDS011;848;48.354;10.064;2023-12-20T10:00:11;3.33;;;3.00;;
1701;SDS011;848;48.354;10.064;2023-12-20T10:02:39;2.40;;;2.20;;
1701;SDS011;848;48.354;10.064;2023-12-20T10:05:13;2.92;;;2.63;;
1701;SDS011;848;48.354;10.064;2023-12-20T10:07:44;3.53;;;3.17;;
1701;SDS011;848;48.354;10.064;2023-12-20T10:10:13;3.65;;;3.00;;
1701;SDS011;848;48.354;10.064;2023-12-20T10:12:40;2.47;;;2.20;;
1701;SDS011;848;48.354;10.064;2023-12-20T10:15:28;3.47;;;2.88;;
1701;SDS011;848;48.354;10.064;2023-12-20T10:17:56;3.20;;;2.90;;
1701;SDS011;848;48.354;10.064;2023-12-20T10:20:23;2.85;;;2.45;;
1701;SDS011;848;48.354;10.064;2023-12-20T10:22:51;2.30;;;2.10;;
1701;SDS011;848;48.354;10.064;2023-12-20T10:25:18;2.00;;;1.80;;
1701;SDS011;848;48.354;10.064;2023-12-20T10:27:45;3.05;;;2.35;;
1701;SDS011;848;48.354;10.064;2023-12-20T10:30:13;2.97;;;2.70;;
1701;SDS011;848;48.354;10.064;2023-12-20T10:32:40;2.53;;;2.33;;
1701;SDS011;848;48.354;10.064;2023-12-20T10:35:08;1.50;;;1.40;;
1701;SDS011;848;48.354;10.064;2023-12-20T10:37:35;1.13;;;1.02;;
1701;SDS011;848;48.354;10.064;2023-12-20T10:40:04;0.60;;;0.60;;
1701;SDS011;848;48.354;10.064;2023-12-20T10:42:32;0.60;;;0.40;;
1701;SDS011;848;48.354;10.064;2023-12-20T10:45:01;0.40;;;0.40;;
1701;SDS011;848;48.354;10.064;2023-12-20T10:47:28;0.45;;;0.30;;
1701;SDS011;848;48.354;10.064;2023-12-20T10:49:57;0.30;;;0.30;;
1701;SDS011;848;48.354;10.064;2023-12-20T10:52:26;0.40;;;0.25;;
1701;SDS011;848;48.354;10.064;2023-12-20T10:54:55;1.25;;;0.30;;
1701;SDS011;848;48.354;10.064;2023-12-20T10:57:23;2.70;;;0.30;;
1701;SDS011;848;48.354;10.064;2023-12-20T10:59:53;0.50;;;0.40;;
1701;SDS011;848;48.354;10.064;2023-12-20T11:02:22;1.13;;;0.52;;
1701;SDS011;848;48.354;10.064;2023-12-20T11:04:50;0.57;;;0.57;;
1701;SDS011;848;48.354;10.064;2023-12-20T11:07:25;1.17;;;0.75;;
1701;SDS011;848;48.354;10.064;2023-12-20T11:09:59;1.08;;;0.60;;
1701;SDS011;848;48.354;10.064;2023-12-20T11:12:46;0.60;;;0.60;;
1701;SDS011;848;48.354;10.064;2023-12-20T11:15:15;0.50;;;0.50;;
1701;SDS011;848;48.354;10.064;2023-12-20T11:17:44;0.63;;;0.63;;
1701;SDS011;848;48.354;10.064;2023-12-20T11:20:12;1.20;;;1.10;;
1701;SDS011;848;48.354;10.064;2023-12-20T11:22:39;4.43;;;1.05;;
1701;SDS011;848;48.354;10.064;2023-12-20T11:25:18;1.67;;;0.90;;
1701;SDS011;848;48.354;10.064;2023-12-20T11:28:06;2.60;;;0.40;;
1701;SDS011;848;48.354;10.064;2023-12-20T11:30:40;0.98;;;0.75;;
1701;SDS011;848;48.354;10.064;2023-12-20T11:33:08;0.60;;;0.60;;
1701;SDS011;848;48.354;10.064;2023-12-20T11:35:35;1.10;;;0.88;;
1701;SDS011;848;48.354;10.064;2023-12-20T11:38:02;3.28;;;1.23;;
1701;SDS011;848;48.354;10.064;2023-12-20T11:40:29;0.70;;;0.52;;
1701;SDS011;848;48.354;10.064;2023-12-20T11:43:06;1.63;;;0.82;;
1701;SDS011;848;48.354;10.064;2023-12-20T11:45:33;0.82;;;0.57;;
1701;SDS011;848;48.354;10.064;2023-12-20T11:48:01;1.08;;;0.68;;
1701;SDS011;848;48.354;10.064;2023-12-20T11:50:28;10.43;;;1.00;;
1701;SDS011;848;48.354;10.064;2023-12-20T11:52:56;3.55;;;1.48;;
1701;SDS011;848;48.354;10.064;2023-12-20T11:55:23;1.25;;;0.93;;
1701;SDS011;848;48.354;10.064;2023-12-20T11:57:49;2.03;;;0.90;;
1701;SDS011;848;48.354;10.064;2023-12-20T12:00:18;1.17;;;1.08;;
1701;SDS011;848;48.354;10.064;2023-12-20T12:02:54;1.75;;;0.45;;
1701;SDS011;848;48.354;10.064;2023-12-20T12:05:22;0.68;;;0.68;;
1701;SDS011;848;48.354;10.064;2023-12-20T12:07:49;3.35;;;0.90;;
1701;SDS011;848;48.354;10.064;2023-12-20T12:10:16;0.80;;;0.80;;
1701;SDS011;848;48.354;10.064;2023-12-20T12:12:43;1.35;;;0.90;;
1701;SDS011;848;48.354;10.064;2023-12-20T12:15:10;1.50;;;0.45;;
1701;SDS011;848;48.354;10.064;2023-12-20T12:17:39;3.20;;;1.60;;
1701;SDS011;848;48.354;10.064;2023-12-20T12:20:06;3.13;;;1.08;;
1701;SDS011;848;48.354;10.064;2023-12-20T12:22:35;1.75;;;1.30;;
1701;SDS011;848;48.354;10.064;2023-12-20T12:25:09;1.95;;;0.80;;
1701;SDS011;848;48.354;10.064;2023-12-20T12:27:36;1.17;;;0.60;;
1701;SDS011;848;48.354;10.064;2023-12-20T12:30:05;0.50;;;0.50;;
1701;SDS011;848;48.354;10.064;2023-12-20T12:32:33;0.63;;;0.60;;
1701;SDS011;848;48.354;10.064;2023-12-20T12:35:02;0.70;;;0.70;;
1701;SDS011;848;48.354;10.064;2023-12-20T12:37:31;1.10;;;0.80;;
1701;SDS011;848;48.354;10.064;2023-12-20T12:40:00;1.67;;;0.90;;
1701;SDS011;848;48.354;10.064;2023-12-20T12:42:28;1.20;;;0.95;;
1701;SDS011;848;48.354;10.064;2023-12-20T12:44:56;1.05;;;0.82;;
1701;SDS011;848;48.354;10.064;2023-12-20T12:47:23;2.65;;;1.17;;
1701;SDS011;848;48.354;10.064;2023-12-20T12:49:51;4.00;;;0.68;;
1701;SDS011;848;48.354;10.064;2023-12-20T12:52:20;1.65;;;0.73;;
1701;SDS011;848;48.354;10.064;2023-12-20T12:54:47;1.95;;;0.57;;
1701;SDS011;848;48.354;10.064;2023-12-20T12:57:14;0.70;;;0.50;;
1701;SDS011;848;48.354;10.064;2023-12-20T12:59:42;0.80;;;0.70;;
1701;SDS011;848;48.354;10.064;2023-12-20T13:02:11;2.10;;;0.68;;
1701;SDS011;848;48.354;10.064;2023-12-20T13:04:38;0.55;;;0.55;;
1701;SDS011;848;48.354;10.064;2023-12-20T13:07:05;3.70;;;1.00;;
1701;SDS011;848;48.354;10.064;2023-12-20T13:09:33;2.85;;;0.93;;
1701;SDS011;848;48.354;10.064;2023-12-20T13:12:00;1.80;;;1.70;;
1701;SDS011;848;48.354;10.064;2023-12-20T13:14:28;4.85;;;1.35;;
1701;SDS011;848;48.354;10.064;2023-12-20T13:16:55;1.27;;;0.88;;
1701;SDS011;848;48.354;10.064;2023-12-20T13:19:22;2.55;;;1.40;;
1701;SDS011;848;48.354;10.064;2023-12-20T13:21:49;1.13;;;1.02;;
1701;SDS011;848;48.354;10.064;2023-12-20T13:24:16;1.77;;;0.80;;
1701;SDS011;848;48.354;10.064;2023-12-20T13:26:45;1.50;;;1.25;;
1701;SDS011;848;48.354;10.064;2023-12-20T13:29:12;1.58;;;0.98;;
1701;SDS011;848;48.354;10.064;2023-12-20T13:31:39;1.10;;;0.80;;
1701;SDS011;848;48.354;10.064;2023-12-20T13:34:06;1.38;;;0.95;;
1701;SDS011;848;48.354;10.064;2023-12-20T13:36:33;0.90;;;0.90;;
1701;SDS011;848;48.354;10.064;2023-12-20T13:39:01;0.70;;;0.70;;
1701;SDS011;848;48.354;10.064;2023-12-20T13:41:30;0.68;;;0.68;;
1701;SDS011;848;48.354;10.064;2023-12-20T13:43:58;0.95;;;0.70;;
1701;SDS011;848;48.354;10.064;2023-12-20T13:46:26;0.50;;;0.50;;
1701;SDS011;848;48.354;10.064;2023-12-20T13:48:53;0.85;;;0.85;;
1701;SDS011;848;48.354;10.064;2023-12-20T13:51:20;2.28;;;0.95;;
1701;SDS011;848;48.354;10.064;2023-12-20T13:53:47;8.82;;;5.10;;
1701;SDS011;848;48.354;10.064;2023-12-20T13:56:14;1.25;;;1.15;;
1701;SDS011;848;48.354;10.064;2023-12-20T13:58:41;1.65;;;1.02;;
1701;SDS011;848;48.354;10.064;2023-12-20T14:01:09;0.93;;;0.90;;
1701;SDS011;848;48.354;10.064;2023-12-20T14:03:35;1.30;;;0.70;;
1701;SDS011;848;48.354;10.064;2023-12-20T14:06:02;1.65;;;0.88;;
1701;SDS011;848;48.354;10.064;2023-12-20T14:08:29;1.35;;;0.90;;
1701;SDS011;848;48.354;10.064;2023-12-20T14:10:56;5.45;;;1.45;;
1701;SDS011;848;48.354;10.064;2023-12-20T14:13:23;1.48;;;1.38;;
1701;SDS011;848;48.354;10.064;2023-12-20T14:15:50;1.38;;;0.60;;
1701;SDS011;848;48.354;10.064;2023-12-20T14:18:27;4.40;;;1.30;;
1701;SDS011;848;48.354;10.064;2023-12-20T14:20:55;3.50;;;3.30;;
1701;SDS011;848;48.354;10.064;2023-12-20T14:23:22;2.78;;;0.95;;
1701;SDS011;848;48.354;10.064;2023-12-20T14:25:49;3.10;;;0.73;;
1701;SDS011;848;48.354;10.064;2023-12-20T14:30:44;0.68;;;0.68;;
1701;SDS011;848;48.354;10.064;2023-12-20T14:33:11;0.93;;;0.60;;
1701;SDS011;848;48.354;10.064;2023-12-20T14:35:40;0.85;;;0.80;;
1701;SDS011;848;48.354;10.064;2023-12-20T14:38:09;2.28;;;0.93;;
1701;SDS011;848;48.354;10.064;2023-12-20T14:40:38;6.80;;;1.08;;
1701;SDS011;848;48.354;10.064;2023-12-20T14:43:05;1.52;;;0.45;;
1701;SDS011;848;48.354;10.064;2023-12-20T14:45:32;3.53;;;1.17;;
1701;SDS011;848;48.354;10.064;2023-12-20T14:47:59;5.85;;;1.20;;
1701;SDS011;848;48.354;10.064;2023-12-20T14:50:26;2.40;;;0.70;;
1701;SDS011;848;48.354;10.064;2023-12-20T14:52:54;3.25;;;1.00;;
1701;SDS011;848;48.354;10.064;2023-12-20T14:55:24;4.18;;;1.15;;
1701;SDS011;848;48.354;10.064;2023-12-20T14:57:52;6.38;;;1.25;;
1701;SDS011;848;48.354;10.064;2023-12-20T15:00:19;12.18;;;1.85;;
1701;SDS011;848;48.354;10.064;2023-12-20T15:02:46;5.13;;;1.88;;
1701;SDS011;848;48.354;10.064;2023-12-20T15:05:13;3.33;;;0.93;;
1701;SDS011;848;48.354;10.064;2023-12-20T15:07:40;1.55;;;0.90;;
1701;SDS011;848;48.354;10.064;2023-12-20T15:10:09;3.92;;;1.13;;
1701;SDS011;848;48.354;10.064;2023-12-20T15:12:36;5.25;;;1.42;;
1701;SDS011;848;48.354;10.064;2023-12-20T15:15:03;4.93;;;1.05;;
1701;SDS011;848;48.354;10.064;2023-12-20T15:17:30;12.60;;;2.08;;
1701;SDS011;848;48.354;10.064;2023-12-20T15:19:58;4.93;;;1.23;;
1701;SDS011;848;48.354;10.064;2023-12-20T15:22:26;4.10;;;1.20;;